sensor_id;sensor_type;location;lat;lon;timestamp;temperature;humidity
76211;DHT22;65003;49.518;11.280;2023-11-21T00:02:12;9.40;99.90
76211;DHT22;65003;49.518;11.280;2023-11-21T00:04:39;9.40;99.90
76211;DHT22;65003;49.518;11.280;2023-11-21T00:07:06;9.40;99.90
76211;DHT22;65003;49.518;11.280;2023-11-21T00:09:32;9.50;99.90
76211;DHT22;65003;49.518;11.280;2023-11-21T00:11:59;9.50;99.90
76211;DHT22;65003;49.518;11.280;2023-11-21T00:14:25;9.50;99.90
76211;DHT22;65003;49.518;11.280;2023-11-21T00:16:52;9.50;99.90
76211;DHT22;65003;49.518;11.280;2023-11-21T00:19:19;9.60;99.90
76211;DHT22;65003;49.518;11.280;2023-11-21T00:21:45;9.60;99.90
76211;DHT22;65003;49.518;11.280;2023-11-21T00:24:12;9.60;99.90
76211;DHT22;65003;49.518;11.280;2023-11-21T00:26:39;9.50;99.90
76211;DHT22;65003;49.518;11.280;2023-11-21T00:29:05;9.50;99.90
76211;DHT22;65003;49.518;11.280;2023-11-21T00:31:32;9.50;99.90
76211;DHT22;65003;49.518;11.280;2023-11-21T00:33:59;9.50;99.90
76211;DHT22;65003;49.518;11.280;2023-11-21T00:36:25;9.40;99.90
76211;DHT22;65003;49.518;11.280;2023-11-21T00:38:52;9.40;99.90
76211;DHT22;65003;49.518;11.280;2023-11-21T00:41:18;9.50;99.90
76211;DHT22;65003;49.518;11.280;2023-11-21T00:43:45;9.50;99.90
76211;DHT22;65003;49.518;11.280;2023-11-21T00:46:12;9.50;99.90
76211;DHT22;65003;49.518;11.280;2023-11-21T00:48:38;9.50;99.90
76211;DHT22;65003;49.518;11.280;2023-11-21T00:51:05;9.50;99.90
76211;DHT22;65003;49.518;11.280;2023-11-21T00:53:32;9.50;99.90
76211;DHT22;65003;49.518;11.280;2023-11-21T00:55:58;9.50;99.90
76211;DHT22;65003;49.518;11.280;2023-11-21T00:58:25;9.40;99.90
76211;DHT22;65003;49.518;11.280;2023-11-21T01:00:51;9.40;99.90
76211;DHT22;65003;49.518;11.280;2023-11-21T01:03:18;9.50;99.90
76211;DHT22;65003;49.518;11.280;2023-11-21T01:05:45;9.50;99.90
76211;DHT22;65003;49.518;11.280;2023-11-21T01:08:11;9.50;99.90
76211;DHT22;65003;49.518;11.280;2023-11-21T01:10:38;9.50;99.90
76211;DHT22;65003;49.518;11.280;2023-11-21T01:13:04;9.40;99.90
76211;DHT22;65003;49.518;11.280;2023-11-21T01:15:31;9.40;99.90
76211;DHT22;65003;49.518;11.280;2023-11-21T01:17:58;9.40;99.90
76211;DHT22;65003;49.518;11.280;2023-11-21T01:20:24;9.50;99.90
76211;DHT22;65003;49.518;11.280;2023-11-21T01:22:51;9.40;99.90
76211;DHT22;65003;49.518;11.280;2023-11-21T01:25:17;9.30;99.90
76211;DHT22;65003;49.518;11.280;2023-11-21T01:27:44;9.30;99.90
76211;DHT22;65003;49.518;11.280;2023-11-21T01:30:11;9.20;99.90
76211;DHT22;65003;49.518;11.280;2023-11-21T01:32:37;9.10;99.90
76211;DHT22;65003;49.518;11.280;2023-11-21T01:35:04;9.20;99.90
76211;DHT22;65003;49.518;11.280;2023-11-21T01:37:31;9.20;99.90
76211;DHT22;65003;49.518;11.280;2023-11-21T01:39:57;9.10;99.90
76211;DHT22;65003;49.518;11.280;2023-11-21T01:42:24;9.20;99.90
76211;DHT22;65003;49.518;11.280;2023-11-21T01:44:50;9.30;99.90
76211;DHT22;65003;49.518;11.280;2023-11-21T01:47:17;9.30;99.90
76211;DHT22;65003;49.518;11.280;2023-11-21T01:49:44;9.20;99.90
76211;DHT22;65003;49.518;11.280;2023-11-21T01:52:10;9.20;99.90
76211;DHT22;65003;49.518;11.280;2023-11-21T01:54:37;9.10;99.90
76211;DHT22;65003;49.518;11.280;2023-11-21T01:57:04;9.20;99.90
76211;DHT22;65003;49.518;11.280;2023-11-21T01:59:33;9.20;99.90
76211;DHT22;65003;49.518;11.280;2023-11-21T02:01:57;9.20;99.90
76211;DHT22;65003;49.518;11.280;2023-11-21T02:04:23;9.30;99.90
76211;DHT22;65003;49.518;11.280;2023-11-21T02:06:50;9.30;99.90
76211;DHT22;65003;49.518;11.280;2023-11-21T02:09:17;9.40;99.90
76211;DHT22;65003;49.518;11.280;2023-11-21T02:11:43;9.50;99.90
76211;DHT22;65003;49.518;11.280;2023-11-21T02:14:10;9.50;99.90
76211;DHT22;65003;49.518;11.280;2023-11-21T02:16:36;9.50;99.90
76211;DHT22;65003;49.518;11.280;2023-11-21T02:19:03;9.50;99.90
76211;DHT22;65003;49.518;11.280;2023-11-21T02:21:30;9.40;99.90
76211;DHT22;65003;49.518;11.280;2023-11-21T02:23:56;9.30;99.90
76211;DHT22;65003;49.518;11.280;2023-11-21T02:26:23;9.30;99.90
76211;DHT22;65003;49.518;11.280;2023-11-21T02:28:49;9.30;99.90
76211;DHT22;65003;49.518;11.280;2023-11-21T02:31:16;9.30;99.90
76211;DHT22;65003;49.518;11.280;2023-11-21T02:33:42;9.30;99.90
76211;DHT22;65003;49.518;11.280;2023-11-21T02:36:09;9.30;99.90
76211;DHT22;65003;49.518;11.280;2023-11-21T02:38:36;9.30;99.90
76211;DHT22;65003;49.518;11.280;2023-11-21T02:41:02;9.40;99.90
76211;DHT22;65003;49.518;11.280;2023-11-21T02:43:29;9.40;99.90
76211;DHT22;65003;49.518;11.280;2023-11-21T02:45:55;9.40;99.90
76211;DHT22;65003;49.518;11.280;2023-11-21T02:48:22;9.30;99.90
76211;DHT22;65003;49.518;11.280;2023-11-21T02:50:48;9.20;99.90
76211;DHT22;65003;49.518;11.280;2023-11-21T02:53:15;9.10;99.90
76211;DHT22;65003;49.518;11.280;2023-11-21T02:55:42;9.10;99.90
76211;DHT22;65003;49.518;11.280;2023-11-21T02:58:08;9.00;99.90
76211;DHT22;65003;49.518;11.280;2023-11-21T03:00:35;9.00;99.90
76211;DHT22;65003;49.518;11.280;2023-11-21T03:03:01;8.90;99.90
76211;DHT22;65003;49.518;11.280;2023-11-21T03:05:28;8.80;99.90
76211;DHT22;65003;49.518;11.280;2023-11-21T03:07:55;8.80;99.90
76211;DHT22;65003;49.518;11.280;2023-11-21T03:10:21;8.80;99.90
76211;DHT22;65003;49.518;11.280;2023-11-21T03:12:48;8.80;99.90
76211;DHT22;65003;49.518;11.280;2023-11-21T03:15:14;8.80;99.90
76211;DHT22;65003;49.518;11.280;2023-11-21T03:17:41;8.90;99.90
76211;DHT22;65003;49.518;11.280;2023-11-21T03:20:08;8.90;99.90
76211;DHT22;65003;49.518;11.280;2023-11-21T03:22:34;8.90;99.90
76211;DHT22;65003;49.518;11.280;2023-11-21T03:25:01;8.90;99.90
76211;DHT22;65003;49.518;11.280;2023-11-21T03:27:28;8.90;99.90
76211;DHT22;65003;49.518;11.280;2023-11-21T03:29:54;8.80;99.90
76211;DHT22;65003;49.518;11.280;2023-11-21T03:32:21;8.90;99.90
76211;DHT22;65003;49.518;11.280;2023-11-21T03:34:55;8.90;99.90
76211;DHT22;65003;49.518;11.280;2023-11-21T03:37:21;8.90;99.90
76211;DHT22;65003;49.518;11.280;2023-11-21T03:39:48;8.90;99.90
76211;DHT22;65003;49.518;11.280;2023-11-21T03:42:14;8.90;99.90
76211;DHT22;65003;49.518;11.280;2023-11-21T03:44:41;8.90;99.90
76211;DHT22;65003;49.518;11.280;2023-11-21T03:47:07;9.50;99.90
76211;DHT22;65003;49.518;11.280;2023-11-21T03:49:34;8.90;99.90
76211;DHT22;65003;49.518;11.280;2023-11-21T03:52:00;8.90;99.90
76211;DHT22;65003;49.518;11.280;2023-11-21T03:54:27;8.90;99.90
76211;DHT22;65003;49.518;11.280;2023-11-21T03:56:54;8.90;99.90
76211;DHT22;65003;49.518;11.280;2023-11-21T03:59:20;8.90;99.90
76211;DHT22;65003;49.518;11.280;2023-11-21T04:01:47;9.00;99.90
76211;DHT22;65003;49.518;11.280;2023-11-21T04:04:13;9.00;99.90
76211;DHT22;65003;49.518;11.280;2023-11-21T04:06:41;9.00;99.90
76211;DHT22;65003;49.518;11.280;2023-11-21T04:09:07;9.00;99.90
76211;DHT22;65003;49.518;11.280;2023-11-21T04:11:33;9.00;99.90
76211;DHT22;65003;49.518;11.280;2023-11-21T04:14:00;9.00;99.90
76211;DHT22;65003;49.518;11.280;2023-11-21T04:16:26;9.10;99.90
76211;DHT22;65003;49.518;11.280;2023-11-21T04:18:53;9.00;99.90
76211;DHT22;65003;49.518;11.280;2023-11-21T04:21:20;9.00;99.90
76211;DHT22;65003;49.518;11.280;2023-11-21T04:23:46;8.90;99.90
76211;DHT22;65003;49.518;11.280;2023-11-21T04:26:13;8.80;99.90
76211;DHT22;65003;49.518;11.280;2023-11-21T04:28:39;8.80;99.90
76211;DHT22;65003;49.518;11.280;2023-11-21T04:31:06;8.90;99.90
76211;DHT22;65003;49.518;11.280;2023-11-21T04:33:32;8.90;99.90
76211;DHT22;65003;49.518;11.280;2023-11-21T04:35:59;8.90;99.90
76211;DHT22;65003;49.518;11.280;2023-11-21T04:38:26;8.90;99.90
76211;DHT22;65003;49.518;11.280;2023-11-21T04:40:52;8.90;99.90
76211;DHT22;65003;49.518;11.280;2023-11-21T04:43:19;8.90;99.90
76211;DHT22;65003;49.518;11.280;2023-11-21T04:45:45;8.90;99.90
76211;DHT22;65003;49.518;11.280;2023-11-21T04:48:12;8.90;99.90
76211;DHT22;65003;49.518;11.280;2023-11-21T04:50:39;8.90;99.90
76211;DHT22;65003;49.518;11.280;2023-11-21T04:53:05;8.90;99.90
76211;DHT22;65003;49.518;11.280;2023-11-21T04:55:32;8.90;99.90
76211;DHT22;65003;49.518;11.280;2023-11-21T04:57:58;8.90;99.90
76211;DHT22;65003;49.518;11.280;2023-11-21T05:00:25;8.90;99.90
76211;DHT22;65003;49.518;11.280;2023-11-21T05:02:51;8.90;99.90
76211;DHT22;65003;49.518;11.280;2023-11-21T05:05:18;8.90;99.90
76211;DHT22;65003;49.518;11.280;2023-11-21T05:07:45;8.90;99.90
76211;DHT22;65003;49.518;11.280;2023-11-21T05:10:11;8.90;99.90
76211;DHT22;65003;49.518;11.280;2023-11-21T05:12:38;8.90;99.90
76211;DHT22;65003;49.518;11.280;2023-11-21T05:15:05;8.90;99.90
76211;DHT22;65003;49.518;11.280;2023-11-21T05:17:34;8.90;99.90
76211;DHT22;65003;49.518;11.280;2023-11-21T05:20:01;8.90;99.90
76211;DHT22;65003;49.518;11.280;2023-11-21T05:22:29;8.90;99.90
76211;DHT22;65003;49.518;11.280;2023-11-21T05:24:55;8.90;99.90
76211;DHT22;65003;49.518;11.280;2023-11-21T05:27:22;8.80;99.90
76211;DHT22;65003;49.518;11.280;2023-11-21T05:29:48;8.80;99.90
76211;DHT22;65003;49.518;11.280;2023-11-21T05:32:15;8.80;99.90
76211;DHT22;65003;49.518;11.280;2023-11-21T05:34:41;8.80;99.90
76211;DHT22;65003;49.518;11.280;2023-11-21T05:37:08;8.70;99.90
76211;DHT22;65003;49.518;11.280;2023-11-21T05:39:35;8.70;99.90
76211;DHT22;65003;49.518;11.280;2023-11-21T05:42:01;8.80;99.90
76211;DHT22;65003;49.518;11.280;2023-11-21T05:44:28;8.80;99.90
76211;DHT22;65003;49.518;11.280;2023-11-21T05:46:54;8.70;99.90
76211;DHT22;65003;49.518;11.280;2023-11-21T05:49:21;8.70;99.90
76211;DHT22;65003;49.518;11.280;2023-11-21T05:51:48;8.60;99.90
76211;DHT22;65003;49.518;11.280;2023-11-21T05:54:14;8.60;99.90
76211;DHT22;65003;49.518;11.280;2023-11-21T05:56:41;8.70;99.90
76211;DHT22;65003;49.518;11.280;2023-11-21T05:59:07;8.70;99.90
76211;DHT22;65003;49.518;11.280;2023-11-21T06:01:34;8.70;99.90
76211;DHT22;65003;49.518;11.280;2023-11-21T06:04:00;8.70;99.90
76211;DHT22;65003;49.518;11.280;2023-11-21T06:06:27;8.70;99.90
76211;DHT22;65003;49.518;11.280;2023-11-21T06:08:54;8.70;99.90
76211;DHT22;65003;49.518;11.280;2023-11-21T06:11:20;8.70;99.90
76211;DHT22;65003;49.518;11.280;2023-11-21T06:13:47;8.70;99.90
76211;DHT22;65003;49.518;11.280;2023-11-21T06:16:13;8.70;99.90
76211;DHT22;65003;49.518;11.280;2023-11-21T06:18:40;8.70;99.90
76211;DHT22;65003;49.518;11.280;2023-11-21T06:21:09;8.60;99.90
76211;DHT22;65003;49.518;11.280;2023-11-21T06:23:33;8.70;99.90
76211;DHT22;65003;49.518;11.280;2023-11-21T06:26:00;8.90;99.90
76211;DHT22;65003;49.518;11.280;2023-11-21T06:28:26;9.00;99.90
76211;DHT22;65003;49.518;11.280;2023-11-21T06:30:53;9.10;99.90
76211;DHT22;65003;49.518;11.280;2023-11-21T06:33:19;9.20;99.90
76211;DHT22;65003;49.518;11.280;2023-11-21T06:35:46;9.20;99.90
76211;DHT22;65003;49.518;11.280;2023-11-21T06:38:13;9.30;99.90
76211;DHT22;65003;49.518;11.280;2023-11-21T06:40:39;9.30;99.90
76211;DHT22;65003;49.518;11.280;2023-11-21T06:43:06;9.30;99.90
76211;DHT22;65003;49.518;11.280;2023-11-21T06:45:33;9.30;99.90
76211;DHT22;65003;49.518;11.280;2023-11-21T06:47:59;9.20;99.90
76211;DHT22;65003;49.518;11.280;2023-11-21T06:50:26;9.20;99.90
76211;DHT22;65003;49.518;11.280;2023-11-21T06:52:52;9.10;99.90
76211;DHT22;65003;49.518;11.280;2023-11-21T06:55:19;9.10;99.90
76211;DHT22;65003;49.518;11.280;2023-11-21T06:57:45;9.00;99.90
76211;DHT22;65003;49.518;11.280;2023-11-21T07:00:13;9.10;99.90
76211;DHT22;65003;49.518;11.280;2023-11-21T07:02:39;9.10;99.90
76211;DHT22;65003;49.518;11.280;2023-11-21T07:05:06;9.00;99.90
76211;DHT22;65003;49.518;11.280;2023-11-21T07:07:33;9.10;99.90
76211;DHT22;65003;49.518;11.280;2023-11-21T07:09:59;9.10;99.90
76211;DHT22;65003;49.518;11.280;2023-11-21T07:12:26;9.10;99.90
76211;DHT22;65003;49.518;11.280;2023-11-21T07:14:52;9.10;99.90
76211;DHT22;65003;49.518;11.280;2023-11-21T07:17:19;9.10;99.90
76211;DHT22;65003;49.518;11.280;2023-11-21T07:19:46;9.10;99.90
76211;DHT22;65003;49.518;11.280;2023-11-21T07:22:12;9.10;99.90
76211;DHT22;65003;49.518;11.280;2023-11-21T07:24:39;9.20;99.90
76211;DHT22;65003;49.518;11.280;2023-11-21T07:27:05;9.20;99.90
76211;DHT22;65003;49.518;11.280;2023-11-21T07:29:32;9.20;99.90
76211;DHT22;65003;49.518;11.280;2023-11-21T07:31:59;9.20;99.90
76211;DHT22;65003;49.518;11.280;2023-11-21T07:34:25;9.20;99.90
76211;DHT22;65003;49.518;11.280;2023-11-21T07:36:52;9.20;99.90
76211;DHT22;65003;49.518;11.280;2023-11-21T07:39:18;9.20;99.90
76211;DHT22;65003;49.518;11.280;2023-11-21T07:41:45;9.20;99.90
76211;DHT22;65003;49.518;11.280;2023-11-21T07:44:12;9.20;99.90
76211;DHT22;65003;49.518;11.280;2023-11-21T07:46:38;9.20;99.90
76211;DHT22;65003;49.518;11.280;2023-11-21T07:49:05;9.30;99.90
76211;DHT22;65003;49.518;11.280;2023-11-21T07:51:31;9.40;99.90
76211;DHT22;65003;49.518;11.280;2023-11-21T07:53:58;9.40;99.90
76211;DHT22;65003;49.518;11.280;2023-11-21T07:56:24;9.60;99.90
76211;DHT22;65003;49.518;11.280;2023-11-21T07:58:51;9.60;99.90
76211;DHT22;65003;49.518;11.280;2023-11-21T08:01:18;9.60;99.90
76211;DHT22;65003;49.518;11.280;2023-11-21T08:03:44;9.60;99.90
76211;DHT22;65003;49.518;11.280;2023-11-21T08:06:11;9.60;99.90
76211;DHT22;65003;49.518;11.280;2023-11-21T08:08:37;9.60;99.90
76211;DHT22;65003;49.518;11.280;2023-11-21T08:11:04;9.60;99.90
76211;DHT22;65003;49.518;11.280;2023-11-21T08:13:31;9.60;99.90
76211;DHT22;65003;49.518;11.280;2023-11-21T08:15:58;9.60;99.90
76211;DHT22;65003;49.518;11.280;2023-11-21T08:18:25;9.60;99.90
76211;DHT22;65003;49.518;11.280;2023-11-21T08:20:51;9.70;99.90
76211;DHT22;65003;49.518;11.280;2023-11-21T08:23:18;9.70;99.90
76211;DHT22;65003;49.518;11.280;2023-11-21T08:25:45;9.70;99.90
76211;DHT22;65003;49.518;11.280;2023-11-21T08:28:12;9.70;99.90
76211;DHT22;65003;49.518;11.280;2023-11-21T08:30:38;9.80;99.90
76211;DHT22;65003;49.518;11.280;2023-11-21T08:33:04;9.80;99.90
76211;DHT22;65003;49.518;11.280;2023-11-21T08:35:31;9.80;99.90
76211;DHT22;65003;49.518;11.280;2023-11-21T08:37:57;9.80;99.90
76211;DHT22;65003;49.518;11.280;2023-11-21T08:40:24;9.80;99.90
76211;DHT22;65003;49.518;11.280;2023-11-21T08:42:51;9.80;99.90
76211;DHT22;65003;49.518;11.280;2023-11-21T08:45:18;9.80;99.90
76211;DHT22;65003;49.518;11.280;2023-11-21T08:47:45;9.70;99.90
76211;DHT22;65003;49.518;11.280;2023-11-21T08:50:11;9.60;99.90
76211;DHT22;65003;49.518;11.280;2023-11-21T08:52:39;9.50;99.90
76211;DHT22;65003;49.518;11.280;2023-11-21T08:55:05;9.60;99.90
76211;DHT22;65003;49.518;11.280;2023-11-21T08:57:35;9.50;99.90
76211;DHT22;65003;49.518;11.280;2023-11-21T09:00:02;9.60;99.90
76211;DHT22;65003;49.518;11.280;2023-11-21T09:02:28;9.60;99.90
76211;DHT22;65003;49.518;11.280;2023-11-21T09:04:54;9.70;99.90
76211;DHT22;65003;49.518;11.280;2023-11-21T09:07:21;9.80;99.90
76211;DHT22;65003;49.518;11.280;2023-11-21T09:09:48;9.90;99.90
76211;DHT22;65003;49.518;11.280;2023-11-21T09:12:14;10.00;99.90
76211;DHT22;65003;49.518;11.280;2023-11-21T09:14:42;10.00;99.90
76211;DHT22;65003;49.518;11.280;2023-11-21T09:17:08;10.10;99.90
76211;DHT22;65003;49.518;11.280;2023-11-21T09:19:34;10.10;99.90
76211;DHT22;65003;49.518;11.280;2023-11-21T09:22:01;10.10;99.90
76211;DHT22;65003;49.518;11.280;2023-11-21T09:24:27;10.10;99.90
76211;DHT22;65003;49.518;11.280;2023-11-21T09:26:54;10.10;99.90
76211;DHT22;65003;49.518;11.280;2023-11-21T09:29:20;10.10;99.90
76211;DHT22;65003;49.518;11.280;2023-11-21T09:31:47;10.10;99.90
76211;DHT22;65003;49.518;11.280;2023-11-21T09:34:13;10.10;99.90
76211;DHT22;65003;49.518;11.280;2023-11-21T09:36:40;10.10;99.90
76211;DHT22;65003;49.518;11.280;2023-11-21T09:39:07;10.00;99.90
76211;DHT22;65003;49.518;11.280;2023-11-21T09:41:40;10.00;99.90
76211;DHT22;65003;49.518;11.280;2023-11-21T09:44:04;10.00;99.90
76211;DHT22;65003;49.518;11.280;2023-11-21T09:46:30;10.10;99.90
76211;DHT22;65003;49.518;11.280;2023-11-21T09:48:57;10.20;99.90
76211;DHT22;65003;49.518;11.280;2023-11-21T09:51:23;10.50;99.90
76211;DHT22;65003;49.518;11.280;2023-11-21T09:53:50;10.70;99.90
76211;DHT22;65003;49.518;11.280;2023-11-21T09:56:19;10.90;99.90
76211;DHT22;65003;49.518;11.280;2023-11-21T09:58:45;11.10;99.90
76211;DHT22;65003;49.518;11.280;2023-11-21T10:01:12;11.30;99.90
76211;DHT22;65003;49.518;11.280;2023-11-21T10:03:38;11.40;99.90
76211;DHT22;65003;49.518;11.280;2023-11-21T10:06:05;11.50;99.90
76211;DHT22;65003;49.518;11.280;2023-11-21T10:08:32;11.60;99.90
76211;DHT22;65003;49.518;11.280;2023-11-21T10:10:59;11.70;99.90
76211;DHT22;65003;49.518;11.280;2023-11-21T10:13:26;11.90;99.90
76211;DHT22;65003;49.518;11.280;2023-11-21T10:15:52;12.30;99.90
76211;DHT22;65003;49.518;11.280;2023-11-21T10:18:19;12.70;99.90
76211;DHT22;65003;49.518;11.280;2023-11-21T10:20:45;13.40;99.80
76211;DHT22;65003;49.518;11.280;2023-11-21T10:23:13;13.90;97.50
76211;DHT22;65003;49.518;11.280;2023-11-21T10:25:39;14.20;96.50
76211;DHT22;65003;49.518;11.280;2023-11-21T10:28:06;14.40;96.00
76211;DHT22;65003;49.518;11.280;2023-11-21T10:30:34;14.60;95.20
76211;DHT22;65003;49.518;11.280;2023-11-21T10:33:04;15.10;94.60
76211;DHT22;65003;49.518;11.280;2023-11-21T10:35:39;15.70;93.10
76211;DHT22;65003;49.518;11.280;2023-11-21T10:38:05;16.10;91.80
76211;DHT22;65003;49.518;11.280;2023-11-21T10:40:32;16.00;91.20
76211;DHT22;65003;49.518;11.280;2023-11-21T10:43:09;15.30;91.10
76211;DHT22;65003;49.518;11.280;2023-11-21T10:45:37;14.80;92.70
76211;DHT22;65003;49.518;11.280;2023-11-21T10:48:05;14.40;93.20
76211;DHT22;65003;49.518;11.280;2023-11-21T10:50:32;14.10;94.40
76211;DHT22;65003;49.518;11.280;2023-11-21T10:52:58;13.90;94.60
76211;DHT22;65003;49.518;11.280;2023-11-21T10:55:25;13.60;95.60
76211;DHT22;65003;49.518;11.280;2023-11-21T10:57:53;13.20;96.20
76211;DHT22;65003;49.518;11.280;2023-11-21T11:00:18;13.00;96.60
76211;DHT22;65003;49.518;11.280;2023-11-21T11:02:51;12.80;97.20
76211;DHT22;65003;49.518;11.280;2023-11-21T11:05:15;12.60;97.10
76211;DHT22;65003;49.518;11.280;2023-11-21T11:07:42;12.60;97.40
76211;DHT22;65003;49.518;11.280;2023-11-21T11:10:09;12.60;97.80
76211;DHT22;65003;49.518;11.280;2023-11-21T11:12:35;12.60;97.90
76211;DHT22;65003;49.518;11.280;2023-11-21T11:15:02;12.60;98.20
76211;DHT22;65003;49.518;11.280;2023-11-21T11:17:29;12.70;98.40
76211;DHT22;65003;49.518;11.280;2023-11-21T11:19:55;12.60;98.70
76211;DHT22;65003;49.518;11.280;2023-11-21T11:22:34;12.60;98.70
76211;DHT22;65003;49.518;11.280;2023-11-21T11:28:04;12.70;98.60
76211;DHT22;65003;49.518;11.280;2023-11-21T11:30:36;12.70;98.00
76211;DHT22;65003;49.518;11.280;2023-11-21T11:33:00;12.60;98.30
76211;DHT22;65003;49.518;11.280;2023-11-21T11:36:00;12.50;98.40
76211;DHT22;65003;49.518;11.280;2023-11-21T11:38:23;12.30;99.40
76211;DHT22;65003;49.518;11.280;2023-11-21T11:40:52;12.00;99.90
76211;DHT22;65003;49.518;11.280;2023-11-21T11:43:24;11.80;99.90
76211;DHT22;65003;49.518;11.280;2023-11-21T11:45:43;11.70;99.90
76211;DHT22;65003;49.518;11.280;2023-11-21T11:48:11;11.70;99.90
76211;DHT22;65003;49.518;11.280;2023-11-21T11:50:38;11.60;99.90
76211;DHT22;65003;49.518;11.280;2023-11-21T11:53:12;11.60;99.90
76211;DHT22;65003;49.518;11.280;2023-11-21T11:55:38;11.60;99.90
76211;DHT22;65003;49.518;11.280;2023-11-21T11:58:06;11.50;99.90
76211;DHT22;65003;49.518;11.280;2023-11-21T12:00:33;11.60;99.90
76211;DHT22;65003;49.518;11.280;2023-11-21T12:03:00;11.50;99.90
76211;DHT22;65003;49.518;11.280;2023-11-21T12:05:27;11.40;99.90
76211;DHT22;65003;49.518;11.280;2023-11-21T12:07:54;11.40;99.90
76211;DHT22;65003;49.518;11.280;2023-11-21T12:10:21;11.30;99.90
76211;DHT22;65003;49.518;11.280;2023-11-21T12:12:48;11.30;99.90
76211;DHT22;65003;49.518;11.280;2023-11-21T12:15:14;11.30;99.90
76211;DHT22;65003;49.518;11.280;2023-11-21T12:17:42;11.30;99.90
76211;DHT22;65003;49.518;11.280;2023-11-21T12:20:08;11.40;99.90
76211;DHT22;65003;49.518;11.280;2023-11-21T12:22:35;11.40;99.90
76211;DHT22;65003;49.518;11.280;2023-11-21T12:25:02;11.50;99.90
76211;DHT22;65003;49.518;11.280;2023-11-21T12:27:29;11.40;99.90
76211;DHT22;65003;49.518;11.280;2023-11-21T12:29:55;11.40;99.90
76211;DHT22;65003;49.518;11.280;2023-11-21T12:32:22;11.40;99.90
76211;DHT22;65003;49.518;11.280;2023-11-21T12:34:49;11.40;99.90
76211;DHT22;65003;49.518;11.280;2023-11-21T12:37:15;11.40;99.90
76211;DHT22;65003;49.518;11.280;2023-11-21T12:39:42;11.40;99.90
76211;DHT22;65003;49.518;11.280;2023-11-21T12:42:09;11.40;99.90
76211;DHT22;65003;49.518;11.280;2023-11-21T12:44:35;11.40;99.90
76211;DHT22;65003;49.518;11.280;2023-11-21T12:47:02;11.40;99.90
76211;DHT22;65003;49.518;11.280;2023-11-21T12:49:28;11.40;99.90
76211;DHT22;65003;49.518;11.280;2023-11-21T12:51:55;11.40;99.90
76211;DHT22;65003;49.518;11.280;2023-11-21T12:54:21;11.40;99.90
76211;DHT22;65003;49.518;11.280;2023-11-21T12:56:48;11.40;99.90
76211;DHT22;65003;49.518;11.280;2023-11-21T12:59:15;11.40;99.90
76211;DHT22;65003;49.518;11.280;2023-11-21T13:01:42;11.30;99.90
76211;DHT22;65003;49.518;11.280;2023-11-21T13:04:09;11.30;99.90
76211;DHT22;65003;49.518;11.280;2023-11-21T13:06:35;11.30;99.90
76211;DHT22;65003;49.518;11.280;2023-11-21T13:09:02;11.40;99.90
76211;DHT22;65003;49.518;11.280;2023-11-21T13:11:29;11.40;99.90
76211;DHT22;65003;49.518;11.280;2023-11-21T13:13:55;11.50;99.90
76211;DHT22;65003;49.518;11.280;2023-11-21T13:16:23;11.50;99.90
76211;DHT22;65003;49.518;11.280;2023-11-21T13:18:49;11.50;99.90
76211;DHT22;65003;49.518;11.280;2023-11-21T13:21:16;11.50;99.90
76211;DHT22;65003;49.518;11.280;2023-11-21T13:23:43;11.50;99.90
76211;DHT22;65003;49.518;11.280;2023-11-21T13:26:09;11.60;99.90
76211;DHT22;65003;49.518;11.280;2023-11-21T13:28:36;11.70;99.90
76211;DHT22;65003;49.518;11.280;2023-11-21T13:31:03;11.80;99.90
76211;DHT22;65003;49.518;11.280;2023-11-21T13:33:29;11.90;99.90
76211;DHT22;65003;49.518;11.280;2023-11-21T13:35:55;12.10;99.90
76211;DHT22;65003;49.518;11.280;2023-11-21T13:38:22;12.20;99.90
76211;DHT22;65003;49.518;11.280;2023-11-21T13:40:49;12.30;99.90
76211;DHT22;65003;49.518;11.280;2023-11-21T13:43:16;12.40;99.40
76211;DHT22;65003;49.518;11.280;2023-11-21T13:45:43;12.60;99.40
76211;DHT22;65003;49.518;11.280;2023-11-21T13:48:09;12.60;99.00
76211;DHT22;65003;49.518;11.280;2023-11-21T13:50:37;12.60;97.90
76211;DHT22;65003;49.518;11.280;2023-11-21T13:53:04;12.60;98.40
76211;DHT22;65003;49.518;11.280;2023-11-21T13:55:31;12.50;98.30
76211;DHT22;65003;49.518;11.280;2023-11-21T13:57:58;12.40;98.20
76211;DHT22;65003;49.518;11.280;2023-11-21T14:00:24;12.30;98.50
76211;DHT22;65003;49.518;11.280;2023-11-21T14:02:57;12.20;98.00
76211;DHT22;65003;49.518;11.280;2023-11-21T14:05:27;12.10;98.10
76211;DHT22;65003;49.518;11.280;2023-11-21T14:07:54;12.00;98.50
76211;DHT22;65003;49.518;11.280;2023-11-21T14:10:20;11.90;98.70
76211;DHT22;65003;49.518;11.280;2023-11-21T14:12:47;11.80;98.70
76211;DHT22;65003;49.518;11.280;2023-11-21T14:15:14;11.80;98.70
76211;DHT22;65003;49.518;11.280;2023-11-21T14:17:40;11.80;98.70
76211;DHT22;65003;49.518;11.280;2023-11-21T14:20:07;11.80;98.60
76211;DHT22;65003;49.518;11.280;2023-11-21T14:22:34;11.80;99.00
76211;DHT22;65003;49.518;11.280;2023-11-21T14:25:01;11.80;99.00
76211;DHT22;65003;49.518;11.280;2023-11-21T14:27:27;11.80;99.10
76211;DHT22;65003;49.518;11.280;2023-11-21T14:29:54;11.80;99.00
76211;DHT22;65003;49.518;11.280;2023-11-21T14:32:21;11.70;99.10
76211;DHT22;65003;49.518;11.280;2023-11-21T14:34:47;11.60;99.30
76211;DHT22;65003;49.518;11.280;2023-11-21T14:37:14;11.60;99.70
76211;DHT22;65003;49.518;11.280;2023-11-21T14:39:40;11.50;99.50
76211;DHT22;65003;49.518;11.280;2023-11-21T14:42:07;11.40;99.50
76211;DHT22;65003;49.518;11.280;2023-11-21T14:44:34;11.20;99.70
76211;DHT22;65003;49.518;11.280;2023-11-21T14:47:00;11.10;99.90
76211;DHT22;65003;49.518;11.280;2023-11-21T14:49:27;11.00;99.90
76211;DHT22;65003;49.518;11.280;2023-11-21T14:51:54;10.90;99.90
76211;DHT22;65003;49.518;11.280;2023-11-21T14:54:35;10.80;99.90
76211;DHT22;65003;49.518;11.280;2023-11-21T14:57:08;10.80;99.90
76211;DHT22;65003;49.518;11.280;2023-11-21T14:59:34;10.80;99.90
76211;DHT22;65003;49.518;11.280;2023-11-21T15:02:00;10.80;99.90
76211;DHT22;65003;49.518;11.280;2023-11-21T15:04:27;10.70;99.90
76211;DHT22;65003;49.518;11.280;2023-11-21T15:07:05;10.70;99.90
76211;DHT22;65003;49.518;11.280;2023-11-21T15:09:32;10.60;99.90
76211;DHT22;65003;49.518;11.280;2023-11-21T15:12:01;10.50;99.90
76211;DHT22;65003;49.518;11.280;2023-11-21T15:14:33;10.50;99.90
76211;DHT22;65003;49.518;11.280;2023-11-21T15:17:00;10.50;99.90
76211;DHT22;65003;49.518;11.280;2023-11-21T15:19:26;10.50;99.90
76211;DHT22;65003;49.518;11.280;2023-11-21T15:21:53;10.50;99.90
76211;DHT22;65003;49.518;11.280;2023-11-21T15:24:19;10.40;99.90
76211;DHT22;65003;49.518;11.280;2023-11-21T15:26:46;10.30;99.90